sensor_id;sensor_type;location;lat;lon;timestamp;P1;durP1;ratioP1;P2;durP2;ratioP2
70605;SDS011;58173;52.500;5.494;2023-09-19T00:01:46;6.28;;;1.60;;
70605;SDS011;58173;52.500;5.494;2023-09-19T00:04:14;6.43;;;1.50;;
70605;SDS011;58173;52.500;5.494;2023-09-19T00:06:42;6.75;;;1.40;;
70605;SDS011;58173;52.500;5.494;2023-09-19T00:09:10;4.15;;;1.40;;
70605;SDS011;58173;52.500;5.494;2023-09-19T00:11:37;6.82;;;1.63;;
70605;SDS011;58173;52.500;5.494;2023-09-19T00:14:05;4.47;;;0.93;;
70605;SDS011;58173;52.500;5.494;2023-09-19T00:16:34;5.78;;;1.02;;
70605;SDS011;58173;52.500;5.494;2023-09-19T00:19:02;3.58;;;1.00;;
70605;SDS011;58173;52.500;5.494;2023-09-19T00:21:31;5.30;;;1.05;;
70605;SDS011;58173;52.500;5.494;2023-09-19T00:23:58;6.18;;;1.30;;
70605;SDS011;58173;52.500;5.494;2023-09-19T00:26:26;5.65;;;1.20;;
70605;SDS011;58173;52.500;5.494;2023-09-19T00:28:56;4.78;;;1.23;;
70605;SDS011;58173;52.500;5.494;2023-09-19T00:31:23;4.00;;;0.90;;
70605;SDS011;58173;52.500;5.494;2023-09-19T00:33:52;4.38;;;1.10;;
70605;SDS011;58173;52.500;5.494;2023-09-19T00:36:20;3.45;;;0.90;;
70605;SDS011;58173;52.500;5.494;2023-09-19T00:38:47;4.65;;;0.95;;
70605;SDS011;58173;52.500;5.494;2023-09-19T00:41:15;3.88;;;1.05;;
70605;SDS011;58173;52.500;5.494;2023-09-19T00:43:42;6.18;;;1.08;;
70605;SDS011;58173;52.500;5.494;2023-09-19T00:46:09;5.03;;;1.02;;
70605;SDS011;58173;52.500;5.494;2023-09-19T00:48:40;4.28;;;1.25;;
70605;SDS011;58173;52.500;5.494;2023-09-19T00:51:10;5.85;;;1.30;;
70605;SDS011;58173;52.500;5.494;2023-09-19T00:53:37;5.50;;;1.30;;
70605;SDS011;58173;52.500;5.494;2023-09-19T00:56:06;4.72;;;1.20;;
70605;SDS011;58173;52.500;5.494;2023-09-19T00:58:33;4.82;;;1.33;;
70605;SDS011;58173;52.500;5.494;2023-09-19T01:01:01;3.40;;;0.93;;
70605;SDS011;58173;52.500;5.494;2023-09-19T01:03:38;5.10;;;1.10;;
70605;SDS011;58173;52.500;5.494;2023-09-19T01:06:07;4.47;;;1.00;;
70605;SDS011;58173;52.500;5.494;2023-09-19T01:08:38;7.28;;;1.60;;
70605;SDS011;58173;52.500;5.494;2023-09-19T01:13:43;4.82;;;1.23;;
70605;SDS011;58173;52.500;5.494;2023-09-19T01:24:10;4.00;;;1.05;;
70605;SDS011;58173;52.500;5.494;2023-09-19T01:29:39;2.97;;;0.95;;
70605;SDS011;58173;52.500;5.494;2023-09-19T01:32:11;2.58;;;1.10;;
70605;SDS011;58173;52.500;5.494;2023-09-19T01:34:46;4.00;;;1.20;;
70605;SDS011;58173;52.500;5.494;2023-09-19T01:37:15;3.90;;;1.10;;
70605;SDS011;58173;52.500;5.494;2023-09-19T01:39:47;3.25;;;1.00;;
70605;SDS011;58173;52.500;5.494;2023-09-19T01:42:31;3.92;;;1.10;;
70605;SDS011;58173;52.500;5.494;2023-09-19T01:45:07;7.10;;;1.20;;
70605;SDS011;58173;52.500;5.494;2023-09-19T01:47:46;4.47;;;1.13;;
70605;SDS011;58173;52.500;5.494;2023-09-19T01:50:22;5.00;;;1.25;;
70605;SDS011;58173;52.500;5.494;2023-09-19T01:52:57;4.63;;;1.48;;
70605;SDS011;58173;52.500;5.494;2023-09-19T01:55:29;5.18;;;1.25;;
70605;SDS011;58173;52.500;5.494;2023-09-19T01:58:14;3.08;;;1.00;;
70605;SDS011;58173;52.500;5.494;2023-09-19T02:00:43;5.10;;;1.23;;
70605;SDS011;58173;52.500;5.494;2023-09-19T02:03:11;2.85;;;1.17;;
70605;SDS011;58173;52.500;5.494;2023-09-19T02:05:41;3.03;;;1.00;;
70605;SDS011;58173;52.500;5.494;2023-09-19T02:08:09;3.00;;;0.98;;
70605;SDS011;58173;52.500;5.494;2023-09-19T02:10:36;4.65;;;1.30;;
70605;SDS011;58173;52.500;5.494;2023-09-19T02:13:04;4.00;;;1.10;;
70605;SDS011;58173;52.500;5.494;2023-09-19T02:15:32;3.00;;;1.00;;
70605;SDS011;58173;52.500;5.494;2023-09-19T02:18:01;3.67;;;1.10;;
70605;SDS011;58173;52.500;5.494;2023-09-19T02:20:29;4.00;;;0.98;;
70605;SDS011;58173;52.500;5.494;2023-09-19T02:22:56;4.65;;;1.08;;
70605;SDS011;58173;52.500;5.494;2023-09-19T02:25:23;3.45;;;1.08;;
70605;SDS011;58173;52.500;5.494;2023-09-19T02:27:53;4.38;;;1.30;;
70605;SDS011;58173;52.500;5.494;2023-09-19T02:30:22;2.88;;;0.98;;
70605;SDS011;58173;52.500;5.494;2023-09-19T02:32:51;3.10;;;1.00;;
70605;SDS011;58173;52.500;5.494;2023-09-19T02:35:18;3.72;;;0.90;;
70605;SDS011;58173;52.500;5.494;2023-09-19T02:37:46;7.18;;;1.10;;
70605;SDS011;58173;52.500;5.494;2023-09-19T02:40:13;5.65;;;1.20;;
70605;SDS011;58173;52.500;5.494;2023-09-19T02:42:55;4.65;;;1.45;;
70605;SDS011;58173;52.500;5.494;2023-09-19T02:45:22;4.78;;;1.20;;
70605;SDS011;58173;52.500;5.494;2023-09-19T02:47:50;4.63;;;1.20;;
70605;SDS011;58173;52.500;5.494;2023-09-19T02:50:17;4.13;;;1.20;;
70605;SDS011;58173;52.500;5.494;2023-09-19T02:52:45;4.07;;;0.93;;
70605;SDS011;58173;52.500;5.494;2023-09-19T02:55:16;5.50;;;0.90;;
70605;SDS011;58173;52.500;5.494;2023-09-19T02:57:47;3.75;;;1.10;;
70605;SDS011;58173;52.500;5.494;2023-09-19T03:00:16;4.03;;;1.30;;
70605;SDS011;58173;52.500;5.494;2023-09-19T03:02:48;2.85;;;0.90;;
70605;SDS011;58173;52.500;5.494;2023-09-19T03:05:15;4.03;;;1.13;;
70605;SDS011;58173;52.500;5.494;2023-09-19T03:07:43;4.72;;;1.10;;
70605;SDS011;58173;52.500;5.494;2023-09-19T03:10:17;4.45;;;1.10;;
70605;SDS011;58173;52.500;5.494;2023-09-19T03:12:45;3.95;;;1.30;;
70605;SDS011;58173;52.500;5.494;2023-09-19T03:15:13;3.75;;;1.20;;
70605;SDS011;58173;52.500;5.494;2023-09-19T03:17:47;5.03;;;1.20;;
70605;SDS011;58173;52.500;5.494;2023-09-19T03:20:18;4.38;;;1.10;;
70605;SDS011;58173;52.500;5.494;2023-09-19T03:22:47;6.35;;;1.13;;
70605;SDS011;58173;52.500;5.494;2023-09-19T03:25:15;5.68;;;1.30;;
70605;SDS011;58173;52.500;5.494;2023-09-19T03:27:47;6.03;;;1.20;;
70605;SDS011;58173;52.500;5.494;2023-09-19T03:30:14;3.42;;;1.17;;
70605;SDS011;58173;52.500;5.494;2023-09-19T03:32:43;6.25;;;1.30;;
70605;SDS011;58173;52.500;5.494;2023-09-19T03:35:11;3.25;;;1.10;;
70605;SDS011;58173;52.500;5.494;2023-09-19T03:37:41;4.45;;;1.20;;
70605;SDS011;58173;52.500;5.494;2023-09-19T03:40:09;4.18;;;1.17;;
70605;SDS011;58173;52.500;5.494;2023-09-19T03:42:40;4.63;;;1.08;;
70605;SDS011;58173;52.500;5.494;2023-09-19T03:45:11;6.18;;;1.40;;
70605;SDS011;58173;52.500;5.494;2023-09-19T03:47:44;4.43;;;1.30;;
70605;SDS011;58173;52.500;5.494;2023-09-19T03:50:16;4.40;;;1.38;;
70605;SDS011;58173;52.500;5.494;2023-09-19T03:52:44;3.70;;;1.13;;
70605;SDS011;58173;52.500;5.494;2023-09-19T03:55:11;4.38;;;1.10;;
70605;SDS011;58173;52.500;5.494;2023-09-19T03:57:40;5.68;;;1.20;;
70605;SDS011;58173;52.500;5.494;2023-09-19T04:00:08;5.18;;;1.10;;
70605;SDS011;58173;52.500;5.494;2023-09-19T04:02:39;4.13;;;1.00;;
70605;SDS011;58173;52.500;5.494;2023-09-19T04:05:07;6.55;;;1.10;;
70605;SDS011;58173;52.500;5.494;2023-09-19T04:07:35;3.22;;;1.00;;
70605;SDS011;58173;52.500;5.494;2023-09-19T04:10:03;2.83;;;1.10;;
70605;SDS011;58173;52.500;5.494;2023-09-19T04:12:30;6.95;;;1.40;;
70605;SDS011;58173;52.500;5.494;2023-09-19T04:15:00;4.05;;;1.05;;
70605;SDS011;58173;52.500;5.494;2023-09-19T04:17:27;4.90;;;1.30;;
70605;SDS011;58173;52.500;5.494;2023-09-19T04:19:54;5.20;;;1.17;;
70605;SDS011;58173;52.500;5.494;2023-09-19T04:22:22;4.40;;;1.08;;
70605;SDS011;58173;52.500;5.494;2023-09-19T04:24:49;5.15;;;1.15;;
70605;SDS011;58173;52.500;5.494;2023-09-19T04:27:16;4.18;;;1.17;;
70605;SDS011;58173;52.500;5.494;2023-09-19T04:29:45;4.05;;;1.17;;
70605;SDS011;58173;52.500;5.494;2023-09-19T04:32:12;7.03;;;1.10;;
70605;SDS011;58173;52.500;5.494;2023-09-19T04:34:39;4.10;;;1.00;;
70605;SDS011;58173;52.500;5.494;2023-09-19T04:37:07;4.93;;;1.20;;
70605;SDS011;58173;52.500;5.494;2023-09-19T04:39:34;3.40;;;1.30;;
70605;SDS011;58173;52.500;5.494;2023-09-19T04:42:01;4.78;;;1.10;;
70605;SDS011;58173;52.500;5.494;2023-09-19T04:44:29;4.78;;;1.50;;
70605;SDS011;58173;52.500;5.494;2023-09-19T04:46:57;7.60;;;1.48;;
70605;SDS011;58173;52.500;5.494;2023-09-19T04:49:26;4.95;;;1.13;;
70605;SDS011;58173;52.500;5.494;2023-09-19T04:51:53;5.25;;;1.30;;
70605;SDS011;58173;52.500;5.494;2023-09-19T04:54:21;4.80;;;1.20;;
70605;SDS011;58173;52.500;5.494;2023-09-19T04:56:49;4.20;;;1.27;;
70605;SDS011;58173;52.500;5.494;2023-09-19T04:59:16;3.92;;;1.10;;
70605;SDS011;58173;52.500;5.494;2023-09-19T05:01:43;3.90;;;1.02;;
70605;SDS011;58173;52.500;5.494;2023-09-19T05:04:10;4.93;;;1.20;;
70605;SDS011;58173;52.500;5.494;2023-09-19T05:06:38;3.33;;;1.00;;
70605;SDS011;58173;52.500;5.494;2023-09-19T05:09:05;5.60;;;1.20;;
70605;SDS011;58173;52.500;5.494;2023-09-19T05:11:32;5.78;;;1.30;;
70605;SDS011;58173;52.500;5.494;2023-09-19T05:14:00;7.05;;;1.20;;
70605;SDS011;58173;52.500;5.494;2023-09-19T05:16:30;4.60;;;0.90;;
70605;SDS011;58173;52.500;5.494;2023-09-19T05:19:00;2.75;;;0.98;;
70605;SDS011;58173;52.500;5.494;2023-09-19T05:21:28;4.63;;;1.10;;
70605;SDS011;58173;52.500;5.494;2023-09-19T05:23:56;5.88;;;1.30;;
70605;SDS011;58173;52.500;5.494;2023-09-19T05:26:23;6.43;;;1.52;;
70605;SDS011;58173;52.500;5.494;2023-09-19T05:28:51;4.82;;;1.20;;
70605;SDS011;58173;52.500;5.494;2023-09-19T05:31:19;5.10;;;1.20;;
70605;SDS011;58173;52.500;5.494;2023-09-19T05:33:47;4.15;;;1.38;;
70605;SDS011;58173;52.500;5.494;2023-09-19T05:36:14;3.97;;;1.10;;
70605;SDS011;58173;52.500;5.494;2023-09-19T05:38:43;5.03;;;1.10;;
70605;SDS011;58173;52.500;5.494;2023-09-19T05:41:11;4.57;;;1.35;;
70605;SDS011;58173;52.500;5.494;2023-09-19T05:43:40;3.05;;;0.98;;
70605;SDS011;58173;52.500;5.494;2023-09-19T05:46:08;5.32;;;1.10;;
70605;SDS011;58173;52.500;5.494;2023-09-19T05:48:36;6.03;;;1.30;;
70605;SDS011;58173;52.500;5.494;2023-09-19T05:51:05;4.05;;;1.27;;
70605;SDS011;58173;52.500;5.494;2023-09-19T05:53:33;5.13;;;1.30;;
70605;SDS011;58173;52.500;5.494;2023-09-19T05:56:00;6.45;;;1.40;;
70605;SDS011;58173;52.500;5.494;2023-09-19T05:58:27;6.15;;;1.23;;
70605;SDS011;58173;52.500;5.494;2023-09-19T06:00:55;4.53;;;1.00;;
70605;SDS011;58173;52.500;5.494;2023-09-19T06:03:23;5.45;;;1.10;;
70605;SDS011;58173;52.500;5.494;2023-09-19T06:05:51;5.18;;;1.27;;
70605;SDS011;58173;52.500;5.494;2023-09-19T06:08:19;6.13;;;1.30;;
70605;SDS011;58173;52.500;5.494;2023-09-19T06:10:46;5.80;;;1.30;;
70605;SDS011;58173;52.500;5.494;2023-09-19T06:13:15;6.78;;;1.63;;
70605;SDS011;58173;52.500;5.494;2023-09-19T06:15:42;5.18;;;1.15;;
70605;SDS011;58173;52.500;5.494;2023-09-19T06:18:10;4.85;;;1.30;;
70605;SDS011;58173;52.500;5.494;2023-09-19T06:20:41;4.63;;;1.20;;
70605;SDS011;58173;52.500;5.494;2023-09-19T06:23:11;5.70;;;1.10;;
70605;SDS011;58173;52.500;5.494;2023-09-19T06:25:38;5.95;;;1.40;;
70605;SDS011;58173;52.500;5.494;2023-09-19T06:28:07;5.30;;;1.20;;
70605;SDS011;58173;52.500;5.494;2023-09-19T06:30:38;5.45;;;1.40;;
70605;SDS011;58173;52.500;5.494;2023-09-19T06:33:09;6.57;;;1.42;;
70605;SDS011;58173;52.500;5.494;2023-09-19T06:35:38;7.10;;;1.40;;
70605;SDS011;58173;52.500;5.494;2023-09-19T06:38:05;4.80;;;1.20;;
70605;SDS011;58173;52.500;5.494;2023-09-19T06:40:34;6.00;;;1.35;;
70605;SDS011;58173;52.500;5.494;2023-09-19T06:43:01;5.97;;;1.35;;
70605;SDS011;58173;52.500;5.494;2023-09-19T06:45:30;7.10;;;1.50;;
70605;SDS011;58173;52.500;5.494;2023-09-19T06:47:58;6.03;;;1.40;;
70605;SDS011;58173;52.500;5.494;2023-09-19T06:50:26;6.05;;;1.38;;
70605;SDS011;58173;52.500;5.494;2023-09-19T06:52:54;6.82;;;1.60;;
70605;SDS011;58173;52.500;5.494;2023-09-19T06:55:24;5.88;;;1.88;;
70605;SDS011;58173;52.500;5.494;2023-09-19T06:57:53;10.68;;;2.78;;
70605;SDS011;58173;52.500;5.494;2023-09-19T07:00:21;7.28;;;1.73;;
70605;SDS011;58173;52.500;5.494;2023-09-19T07:05:22;7.32;;;2.00;;
70605;SDS011;58173;52.500;5.494;2023-09-19T07:07:50;5.70;;;1.60;;
70605;SDS011;58173;52.500;5.494;2023-09-19T07:10:17;7.32;;;1.70;;
70605;SDS011;58173;52.500;5.494;2023-09-19T07:12:46;7.35;;;1.42;;
70605;SDS011;58173;52.500;5.494;2023-09-19T07:15:14;7.03;;;1.65;;
70605;SDS011;58173;52.500;5.494;2023-09-19T07:17:41;7.38;;;1.60;;
70605;SDS011;58173;52.500;5.494;2023-09-19T07:20:08;6.57;;;1.70;;
70605;SDS011;58173;52.500;5.494;2023-09-19T07:22:36;5.95;;;1.58;;
70605;SDS011;58173;52.500;5.494;2023-09-19T07:25:05;7.35;;;1.67;;
70605;SDS011;58173;52.500;5.494;2023-09-19T07:27:33;7.90;;;1.55;;
70605;SDS011;58173;52.500;5.494;2023-09-19T07:30:00;7.00;;;1.52;;
70605;SDS011;58173;52.500;5.494;2023-09-19T07:32:27;8.13;;;1.50;;
70605;SDS011;58173;52.500;5.494;2023-09-19T07:34:55;7.65;;;1.83;;
70605;SDS011;58173;52.500;5.494;2023-09-19T07:37:22;8.18;;;1.73;;
70605;SDS011;58173;52.500;5.494;2023-09-19T07:39:52;7.68;;;1.70;;
70605;SDS011;58173;52.500;5.494;2023-09-19T07:42:19;10.13;;;1.88;;
70605;SDS011;58173;52.500;5.494;2023-09-19T07:44:46;9.07;;;1.75;;
70605;SDS011;58173;52.500;5.494;2023-09-19T07:49:46;9.77;;;2.03;;
70605;SDS011;58173;52.500;5.494;2023-09-19T07:54:41;8.85;;;1.85;;
70605;SDS011;58173;52.500;5.494;2023-09-19T07:57:10;8.55;;;1.73;;
70605;SDS011;58173;52.500;5.494;2023-09-19T07:59:38;9.32;;;2.10;;
70605;SDS011;58173;52.500;5.494;2023-09-19T08:02:07;9.00;;;1.80;;
70605;SDS011;58173;52.500;5.494;2023-09-19T08:04:42;9.52;;;2.00;;
70605;SDS011;58173;52.500;5.494;2023-09-19T08:07:12;8.18;;;2.10;;
70605;SDS011;58173;52.500;5.494;2023-09-19T08:09:40;7.95;;;1.98;;
70605;SDS011;58173;52.500;5.494;2023-09-19T08:12:07;7.88;;;1.80;;
70605;SDS011;58173;52.500;5.494;2023-09-19T08:14:36;8.25;;;1.70;;
70605;SDS011;58173;52.500;5.494;2023-09-19T08:17:04;9.23;;;2.05;;
70605;SDS011;58173;52.500;5.494;2023-09-19T08:19:34;5.63;;;1.40;;
70605;SDS011;58173;52.500;5.494;2023-09-19T08:22:02;6.78;;;1.60;;
70605;SDS011;58173;52.500;5.494;2023-09-19T08:24:30;7.00;;;1.80;;
70605;SDS011;58173;52.500;5.494;2023-09-19T08:26:59;7.50;;;1.80;;
70605;SDS011;58173;52.500;5.494;2023-09-19T08:29:27;8.32;;;1.55;;
70605;SDS011;58173;52.500;5.494;2023-09-19T08:31:56;7.30;;;1.52;;
70605;SDS011;58173;52.500;5.494;2023-09-19T08:34:24;11.18;;;2.45;;
70605;SDS011;58173;52.500;5.494;2023-09-19T08:36:54;10.77;;;2.35;;
70605;SDS011;58173;52.500;5.494;2023-09-19T08:39:25;7.70;;;2.03;;
70605;SDS011;58173;52.500;5.494;2023-09-19T08:41:58;8.48;;;2.10;;
70605;SDS011;58173;52.500;5.494;2023-09-19T08:44:26;9.68;;;2.22;;
70605;SDS011;58173;52.500;5.494;2023-09-19T08:47:08;8.15;;;2.03;;
70605;SDS011;58173;52.500;5.494;2023-09-19T08:49:42;8.63;;;1.88;;
70605;SDS011;58173;52.500;5.494;2023-09-19T08:52:22;7.57;;;2.20;;
70605;SDS011;58173;52.500;5.494;2023-09-19T08:54:52;7.60;;;1.92;;
70605;SDS011;58173;52.500;5.494;2023-09-19T08:57:23;9.13;;;1.92;;
70605;SDS011;58173;52.500;5.494;2023-09-19T08:59:50;9.52;;;2.20;;
70605;SDS011;58173;52.500;5.494;2023-09-19T09:02:18;6.68;;;1.88;;
70605;SDS011;58173;52.500;5.494;2023-09-19T09:04:45;10.32;;;1.92;;
70605;SDS011;58173;52.500;5.494;2023-09-19T09:07:13;8.98;;;1.90;;
70605;SDS011;58173;52.500;5.494;2023-09-19T09:09:43;7.38;;;2.05;;
70605;SDS011;58173;52.500;5.494;2023-09-19T09:12:14;8.95;;;2.03;;
70605;SDS011;58173;52.500;5.494;2023-09-19T09:14:45;11.32;;;2.60;;
70605;SDS011;58173;52.500;5.494;2023-09-19T09:17:16;12.35;;;2.60;;
70605;SDS011;58173;52.500;5.494;2023-09-19T09:19:47;13.18;;;4.10;;
70605;SDS011;58173;52.500;5.494;2023-09-19T09:22:15;12.13;;;3.65;;
70605;SDS011;58173;52.500;5.494;2023-09-19T09:27:20;12.48;;;3.78;;
70605;SDS011;58173;52.500;5.494;2023-09-19T09:32:24;14.15;;;3.70;;
70605;SDS011;58173;52.500;5.494;2023-09-19T09:34:52;13.50;;;4.50;;
70605;SDS011;58173;52.500;5.494;2023-09-19T09:37:24;16.10;;;5.43;;
70605;SDS011;58173;52.500;5.494;2023-09-19T09:39:57;13.02;;;3.47;;
70605;SDS011;58173;52.500;5.494;2023-09-19T09:42:37;13.05;;;4.05;;
70605;SDS011;58173;52.500;5.494;2023-09-19T09:45:14;11.27;;;3.15;;
70605;SDS011;58173;52.500;5.494;2023-09-19T09:47:46;10.77;;;3.20;;
70605;SDS011;58173;52.500;5.494;2023-09-19T09:53:04;14.00;;;4.00;;
70605;SDS011;58173;52.500;5.494;2023-09-19T09:58:21;11.75;;;3.80;;
70605;SDS011;58173;52.500;5.494;2023-09-19T10:00:56;19.98;;;5.60;;
70605;SDS011;58173;52.500;5.494;2023-09-19T10:03:36;16.90;;;5.75;;
70605;SDS011;58173;52.500;5.494;2023-09-19T10:06:11;19.27;;;6.30;;
70605;SDS011;58173;52.500;5.494;2023-09-19T10:11:31;23.25;;;8.70;;
70605;SDS011;58173;52.500;5.494;2023-09-19T10:13:59;25.75;;;8.93;;
70605;SDS011;58173;52.500;5.494;2023-09-19T10:16:33;20.10;;;7.45;;
70605;SDS011;58173;52.500;5.494;2023-09-19T10:19:02;18.83;;;6.40;;
70605;SDS011;58173;52.500;5.494;2023-09-19T10:21:33;22.75;;;7.97;;
70605;SDS011;58173;52.500;5.494;2023-09-19T10:24:03;17.05;;;5.53;;
70605;SDS011;58173;52.500;5.494;2023-09-19T10:26:34;18.48;;;5.55;;
70605;SDS011;58173;52.500;5.494;2023-09-19T10:29:02;18.13;;;5.45;;
70605;SDS011;58173;52.500;5.494;2023-09-19T10:31:33;16.63;;;4.88;;
70605;SDS011;58173;52.500;5.494;2023-09-19T10:34:03;15.82;;;5.40;;
70605;SDS011;58173;52.500;5.494;2023-09-19T10:36:32;14.95;;;4.38;;
70605;SDS011;58173;52.500;5.494;2023-09-19T10:41:31;14.60;;;3.63;;
70605;SDS011;58173;52.500;5.494;2023-09-19T10:44:03;11.77;;;4.13;;
70605;SDS011;58173;52.500;5.494;2023-09-19T10:46:32;12.48;;;3.63;;
70605;SDS011;58173;52.500;5.494;2023-09-19T10:49:00;13.68;;;2.50;;
70605;SDS011;58173;52.500;5.494;2023-09-19T10:51:31;12.88;;;2.70;;
70605;SDS011;58173;52.500;5.494;2023-09-19T10:54:05;11.45;;;2.88;;
70605;SDS011;58173;52.500;5.494;2023-09-19T10:56:34;9.50;;;2.45;;
70605;SDS011;58173;52.500;5.494;2023-09-19T10:59:11;11.10;;;2.90;;
70605;SDS011;58173;52.500;5.494;2023-09-19T11:01:43;9.07;;;2.47;;
70605;SDS011;58173;52.500;5.494;2023-09-19T11:07:09;7.95;;;2.33;;
70605;SDS011;58173;52.500;5.494;2023-09-19T11:09:53;11.00;;;2.00;;
70605;SDS011;58173;52.500;5.494;2023-09-19T11:16:02;9.55;;;1.98;;
70605;SDS011;58173;52.500;5.494;2023-09-19T11:17:59;11.07;;;2.13;;
70605;SDS011;58173;52.500;5.494;2023-09-19T11:20:26;10.80;;;2.58;;
70605;SDS011;58173;52.500;5.494;2023-09-19T11:23:18;10.75;;;2.35;;
70605;SDS011;58173;52.500;5.494;2023-09-19T11:25:49;8.90;;;2.28;;
70605;SDS011;58173;52.500;5.494;2023-09-19T11:28:27;10.50;;;2.60;;
70605;SDS011;58173;52.500;5.494;2023-09-19T11:30:57;8.07;;;2.20;;
70605;SDS011;58173;52.500;5.494;2023-09-19T11:33:25;9.95;;;2.40;;
70605;SDS011;58173;52.500;5.494;2023-09-19T11:36:11;9.68;;;2.60;;
70605;SDS011;58173;52.500;5.494;2023-09-19T11:43:53;7.35;;;1.90;;
70605;SDS011;58173;52.500;5.494;2023-09-19T11:46:31;6.68;;;2.13;;
70605;SDS011;58173;52.500;5.494;2023-09-19T11:49:06;13.65;;;3.35;;
70605;SDS011;58173;52.500;5.494;2023-09-19T11:51:40;11.55;;;2.78;;
70605;SDS011;58173;52.500;5.494;2023-09-19T11:54:12;10.82;;;3.08;;
70605;SDS011;58173;52.500;5.494;2023-09-19T11:56:45;7.80;;;2.33;;
70605;SDS011;58173;52.500;5.494;2023-09-19T11:59:38;7.68;;;1.77;;
70605;SDS011;58173;52.500;5.494;2023-09-19T12:07:07;7.07;;;2.00;;
70605;SDS011;58173;52.500;5.494;2023-09-19T12:09:43;6.78;;;1.65;;
70605;SDS011;58173;52.500;5.494;2023-09-19T12:12:23;8.20;;;1.90;;
70605;SDS011;58173;52.500;5.494;2023-09-19T12:14:54;9.13;;;1.60;;
70605;SDS011;58173;52.500;5.494;2023-09-19T12:17:39;9.15;;;2.05;;
70605;SDS011;58173;52.500;5.494;2023-09-19T12:20:07;7.03;;;1.90;;
70605;SDS011;58173;52.500;5.494;2023-09-19T12:22:42;5.88;;;1.52;;
70605;SDS011;58173;52.500;5.494;2023-09-19T12:25:10;6.93;;;1.63;;
70605;SDS011;58173;52.500;5.494;2023-09-19T12:27:45;7.28;;;1.65;;
70605;SDS011;58173;52.500;5.494;2023-09-19T12:30:27;7.75;;;1.80;;
70605;SDS011;58173;52.500;5.494;2023-09-19T12:32:54;8.48;;;1.65;;
70605;SDS011;58173;52.500;5.494;2023-09-19T12:35:28;4.90;;;1.50;;
70605;SDS011;58173;52.500;5.494;2023-09-19T12:37:57;9.52;;;1.95;;
70605;SDS011;58173;52.500;5.494;2023-09-19T12:40:24;5.32;;;1.40;;
70605;SDS011;58173;52.500;5.494;2023-09-19T12:42:56;9.55;;;1.80;;
70605;SDS011;58173;52.500;5.494;2023-09-19T12:45:30;6.20;;;1.30;;
70605;SDS011;58173;52.500;5.494;2023-09-19T12:53:32;6.85;;;1.48;;
70605;SDS011;58173;52.500;5.494;2023-09-19T12:56:02;7.28;;;1.48;;
70605;SDS011;58173;52.500;5.494;2023-09-19T12:58:32;7.00;;;1.73;;
70605;SDS011;58173;52.500;5.494;2023-09-19T13:01:01;8.07;;;1.60;;
70605;SDS011;58173;52.500;5.494;2023-09-19T13:03:31;6.88;;;1.50;;
70605;SDS011;58173;52.500;5.494;2023-09-19T13:06:01;7.80;;;1.85;;
70605;SDS011;58173;52.500;5.494;2023-09-19T13:08:34;8.60;;;1.80;;
70605;SDS011;58173;52.500;5.494;2023-09-19T13:13:45;6.30;;;1.30;;
70605;SDS011;58173;52.500;5.494;2023-09-19T13:16:16;5.65;;;1.40;;
70605;SDS011;58173;52.500;5.494;2023-09-19T13:18:49;7.22;;;2.60;;
70605;SDS011;58173;52.500;5.494;2023-09-19T13:21:27;5.18;;;1.67;;
70605;SDS011;58173;52.500;5.494;2023-09-19T13:23:55;8.25;;;2.40;;
70605;SDS011;58173;52.500;5.494;2023-09-19T13:26:25;6.53;;;1.58;;
70605;SDS011;58173;52.500;5.494;2023-09-19T13:28:54;10.57;;;1.92;;
70605;SDS011;58173;52.500;5.494;2023-09-19T13:31:21;7.32;;;1.60;;
70605;SDS011;58173;52.500;5.494;2023-09-19T13:33:50;5.38;;;1.45;;
70605;SDS011;58173;52.500;5.494;2023-09-19T13:36:18;7.88;;;1.67;;
70605;SDS011;58173;52.500;5.494;2023-09-19T13:38:45;4.93;;;1.30;;
70605;SDS011;58173;52.500;5.494;2023-09-19T13:41:15;6.03;;;1.65;;
70605;SDS011;58173;52.500;5.494;2023-09-19T13:43:42;6.97;;;1.58;;
70605;SDS011;58173;52.500;5.494;2023-09-19T13:46:14;6.63;;;1.52;;
70605;SDS011;58173;52.500;5.494;2023-09-19T13:48:44;6.28;;;1.33;;
70605;SDS011;58173;52.500;5.494;2023-09-19T13:51:11;5.50;;;1.40;;
70605;SDS011;58173;52.500;5.494;2023-09-19T13:53:38;4.72;;;1.38;;
70605;SDS011;58173;52.500;5.494;2023-09-19T13:56:05;5.65;;;1.40;;
70605;SDS011;58173;52.500;5.494;2023-09-19T13:58:33;7.20;;;1.73;;
70605;SDS011;58173;52.500;5.494;2023-09-19T14:01:00;4.90;;;1.40;;
70605;SDS011;58173;52.500;5.494;2023-09-19T14:03:28;7.85;;;1.30;;
70605;SDS011;58173;52.500;5.494;2023-09-19T14:05:55;7.18;;;1.50;;
70605;SDS011;58173;52.500;5.494;2023-09-19T14:08:22;6.40;;;1.60;;
70605;SDS011;58173;52.500;5.494;2023-09-19T14:10:50;4.65;;;1.50;;
70605;SDS011;58173;52.500;5.494;2023-09-19T14:13:17;6.82;;;1.33;;
70605;SDS011;58173;52.500;5.494;2023-09-19T14:15:44;3.70;;;1.20;;
70605;SDS011;58173;52.500;5.494;2023-09-19T14:18:12;6.53;;;1.30;;
70605;SDS011;58173;52.500;5.494;2023-09-19T14:20:39;7.28;;;2.20;;
70605;SDS011;58173;52.500;5.494;2023-09-19T14:23:07;22.85;;;12.20;;
70605;SDS011;58173;52.500;5.494;2023-09-19T14:25:34;20.75;;;11.90;;
70605;SDS011;58173;52.500;5.494;2023-09-19T14:28:02;28.70;;;16.92;;
70605;SDS011;58173;52.500;5.494;2023-09-19T14:30:29;34.55;;;19.88;;
70605;SDS011;58173;52.500;5.494;2023-09-19T14:32:57;34.00;;;19.85;;
70605;SDS011;58173;52.500;5.494;2023-09-19T14:35:25;26.50;;;16.42;;
70605;SDS011;58173;52.500;5.494;2023-09-19T14:37:52;31.05;;;17.33;;
70605;SDS011;58173;52.500;5.494;2023-09-19T14:40:19;25.58;;;14.25;;
70605;SDS011;58173;52.500;5.494;2023-09-19T14:42:48;20.13;;;10.55;;
70605;SDS011;58173;52.500;5.494;2023-09-19T14:45:18;19.40;;;9.00;;
70605;SDS011;58173;52.500;5.494;2023-09-19T14:47:46;21.08;;;10.45;;
70605;SDS011;58173;52.500;5.494;2023-09-19T14:50:13;16.33;;;8.38;;
70605;SDS011;58173;52.500;5.494;2023-09-19T14:52:42;12.98;;;6.63;;
70605;SDS011;58173;52.500;5.494;2023-09-19T14:55:10;13.30;;;4.78;;
70605;SDS011;58173;52.500;5.494;2023-09-19T14:57:41;11.68;;;4.50;;
70605;SDS011;58173;52.500;5.494;2023-09-19T15:00:11;12.68;;;4.35;;
70605;SDS011;58173;52.500;5.494;2023-09-19T15:02:39;10.50;;;3.70;;
70605;SDS011;58173;52.500;5.494;2023-09-19T15:05:12;9.60;;;3.63;;
70605;SDS011;58173;52.500;5.494;2023-09-19T15:07:45;9.40;;;2.90;;
70605;SDS011;58173;52.500;5.494;2023-09-19T15:10:12;8.43;;;2.80;;
70605;SDS011;58173;52.500;5.494;2023-09-19T15:12:39;7.82;;;2.78;;
70605;SDS011;58173;52.500;5.494;2023-09-19T15:15:07;9.73;;;2.90;;
70605;SDS011;58173;52.500;5.494;2023-09-19T15:17:35;7.82;;;2.47;;
70605;SDS011;58173;52.500;5.494;2023-09-19T15:20:03;10.02;;;2.55;;
70605;SDS011;58173;52.500;5.494;2023-09-19T15:22:33;9.73;;;2.22;;
70605;SDS011;58173;52.500;5.494;2023-09-19T15:25:04;7.45;;;2.30;;
70605;SDS011;58173;52.500;5.494;2023-09-19T15:27:32;5.15;;;2.13;;
70605;SDS011;58173;52.500;5.494;2023-09-19T15:29:59;8.35;;;2.17;;
70605;SDS011;58173;52.500;5.494;2023-09-19T15:32:28;8.65;;;2.50;;
70605;SDS011;58173;52.500;5.494;2023-09-19T15:34:56;11.07;;;3.00;;
70605;SDS011;58173;52.500;5.494;2023-09-19T15:37:23;6.82;;;2.38;;
70605;SDS011;58173;52.500;5.494;2023-09-19T15:39:52;7.25;;;2.25;;
70605;SDS011;58173;52.500;5.494;2023-09-19T15:42:19;6.50;;;2.33;;
70605;SDS011;58173;52.500;5.494;2023-09-19T15:44:46;10.05;;;3.53;;
70605;SDS011;58173;52.500;5.494;2023-09-19T15:47:16;9.95;;;2.42;;
70605;SDS011;58173;52.500;5.494;2023-09-19T15:49:43;8.30;;;2.60;;
70605;SDS011;58173;52.500;5.494;2023-09-19T15:52:11;7.40;;;2.00;;
70605;SDS011;58173;52.500;5.494;2023-09-19T15:54:39;8.80;;;2.10;;
70605;SDS011;58173;52.500;5.494;2023-09-19T15:57:10;4.60;;;1.70;;
70605;SDS011;58173;52.500;5.494;2023-09-19T15:59:39;5.57;;;2.03;;
70605;SDS011;58173;52.500;5.494;2023-09-19T16:02:06;7.80;;;2.33;;